Foss, Oklahoma
Current Conditions -  °F | °C
As of 8:53 AM on Wednesday 26 Nov 2014 (Local Time) from KCSM Reporting Station
Clear Clear  
Wind Chill: 38°   Ceiling: Unl
Heat Index: 45°   Visibility: 10mi
Dew Point: 33°   Wind: 17mph
Humidity: 63%   Direction: 330°NNW
Pressure: 30.21"   Gusts: 26mph
Location:  35.45°N, 99.17°W
Report Text: KCSM 261453Z 33015G23KT 10SM CLR 07/01 A3021 RMK AO2 SLP232 T00720006 53044
Loading
Personal Weather Stations






























Interactive Weather Map New forecast layout! Learn more

10-Day Weather Forecast

Advertisements
Track Severe Weather on mobile